Time;durP1;ratioP1;P1;durP2;ratioP2;P2;SDS_P1;SDS_P2;PMS_P1;PMS_P2;Temp;Humidity;BMP_temperature;BMP_pressure;BME280_temperature;BME280_humidity;BME280_pressure;Samples;Min_cycle;Max_cycle;Signal;HPM_P1;HPM_P2
2023/01/31 00:01:38;;;;;;;;;;;2.10;99.90;;;;;;5068350;28;20390;-72
2023/01/31 00:04:06;;;;;;;;;;;2.10;99.90;;;;;;5075289;28;19924;-73
2023/01/31 00:06:39;;;;;;;;;;;2.10;99.90;;;;;;5073841;28;20426;-73
2023/01/31 00:09:11;;;;;;;;;;;2.10;99.90;;;;;;5065994;28;19951;-72
2023/01/31 00:11:38;;;;;;;;;;;2.10;99.90;;;;;;5066009;28;19929;-73
2023/01/31 00:14:06;;;;;;;;;;;2.10;99.90;;;;;;5057926;28;19924;-72
2023/01/31 00:16:33;;;;;;;;;;;2.10;99.90;;;;;;5063447;28;20448;-72
2023/01/31 00:19:04;;;;;;;;;;;2.10;99.90;;;;;;5081093;28;20387;-72
2023/01/31 00:21:36;;;;;;;;;;;2.10;99.90;;;;;;5070214;28;20001;-72
2023/01/31 00:24:11;;;;;;;;;;;2.10;99.90;;;;;;5072860;28;20380;-72
2023/01/31 00:26:38;;;;;;;;;;;2.10;99.90;;;;;;5072149;28;19929;-72
2023/01/31 00:29:09;;;;;;;;;;;2.00;99.90;;;;;;5071867;28;19935;-73
2023/01/31 00:31:43;;;;;;;;;;;2.00;99.90;;;;;;5057854;28;19930;-72
2023/01/31 00:34:17;;;;;;;;;;;2.00;99.90;;;;;;5072291;28;20028;-73
2023/01/31 00:36:44;;;;;;;;;;;2.10;99.90;;;;;;5072423;28;19928;-72
2023/01/31 00:39:16;;;;;;;;;;;2.00;99.90;;;;;;5073096;28;19935;-72
2023/01/31 00:41:47;;;;;;;;;;;2.10;99.90;;;;;;5066570;28;19924;-72
2023/01/31 00:44:19;;;;;;;;;;;2.10;99.90;;;;;;5069043;28;20352;-72
2023/01/31 00:46:46;;;;;;;;;;;2.00;99.90;;;;;;5067659;28;19931;-71
2023/01/31 00:49:17;;;;;;;;;;;2.00;99.90;;;;;;5064362;28;19928;-72
2023/01/31 00:51:49;;;;;;;;;;;2.00;99.90;;;;;;5044816;28;20329;-72
2023/01/31 00:54:21;;;;;;;;;;;2.00;99.90;;;;;;5051252;28;19928;-72
2023/01/31 00:56:48;;;;;;;;;;;1.90;99.90;;;;;;5050851;28;19925;-72
2023/01/31 00:59:19;;;;;;;;;;;2.00;99.90;;;;;;5071561;28;19935;-72
2023/01/31 01:01:51;;;;;;;;;;;1.90;99.90;;;;;;5068402;28;20018;-72
2023/01/31 01:04:23;;;;;;;;;;;1.90;99.90;;;;;;5057859;28;19928;-73
2023/01/31 01:06:57;;;;;;;;;;;1.90;99.90;;;;;;5074191;28;19924;-72
2023/01/31 01:09:24;;;;;;;;;;;1.90;99.90;;;;;;5068887;28;20387;-72
2023/01/31 01:11:55;;;;;;;;;;;1.90;99.90;;;;;;5056107;28;19924;-73
2023/01/31 01:14:27;;;;;;;;;;;1.90;99.90;;;;;;5059440;28;19924;-72
2023/01/31 01:16:57;;;;;;;;;;;1.90;99.90;;;;;;5076716;28;20345;-71
2023/01/31 01:19:24;;;;;;;;;;;1.90;99.90;;;;;;5068596;28;19932;-72
2023/01/31 01:21:57;;;;;;;;;;;1.90;99.90;;;;;;5055814;28;19946;-72
2023/01/31 01:24:28;;;;;;;;;;;1.90;99.90;;;;;;5052278;28;20184;-72
2023/01/31 01:27:03;;;;;;;;;;;1.90;99.90;;;;;;5053479;28;20026;-72
2023/01/31 01:29:36;;;;;;;;;;;1.90;99.90;;;;;;5080769;28;19924;-72
2023/01/31 01:32:08;;;;;;;;;;;1.90;99.90;;;;;;5074962;28;19925;-72
2023/01/31 01:34:40;;;;;;;;;;;1.80;99.90;;;;;;5060739;28;20449;-72
2023/01/31 01:37:18;;;;;;;;;;;1.80;99.90;;;;;;5049744;28;19928;-72
2023/01/31 01:39:51;;;;;;;;;;;1.80;99.90;;;;;;5072405;28;19925;-72
2023/01/31 01:42:23;;;;;;;;;;;1.80;99.90;;;;;;5056164;28;20367;-71
2023/01/31 01:44:56;;;;;;;;;;;1.80;99.90;;;;;;5054272;28;19935;-72
2023/01/31 01:47:41;;;;;;;;;;;1.70;99.90;;;;;;5066900;28;19924;-72
2023/01/31 01:50:16;;;;;;;;;;;1.70;99.90;;;;;;5075309;28;20392;-72
2023/01/31 01:52:53;;;;;;;;;;;1.70;99.90;;;;;;5068625;28;19964;-72
2023/01/31 01:55:41;;;;;;;;;;;1.60;99.90;;;;;;5052892;28;19924;-72
2023/01/31 01:58:17;;;;;;;;;;;1.60;99.90;;;;;;5057167;28;19924;-71
2023/01/31 02:00:49;;;;;;;;;;;1.60;99.90;;;;;;5081876;28;20394;-74
2023/01/31 02:03:21;;;;;;;;;;;1.50;99.90;;;;;;5050959;28;19979;-72
2023/01/31 02:05:55;;;;;;;;;;;1.50;99.90;;;;;;5050591;28;20574;-71
2023/01/31 02:08:28;;;;;;;;;;;1.50;99.90;;;;;;5072070;28;19970;-72
2023/01/31 02:11:00;;;;;;;;;;;1.40;99.90;;;;;;5046272;28;19939;-71
2023/01/31 02:13:27;;;;;;;;;;;1.40;99.90;;;;;;5071013;28;19924;-72
2023/01/31 02:15:58;;;;;;;;;;;1.30;99.90;;;;;;5081361;28;19959;-72
2023/01/31 02:18:30;;;;;;;;;;;1.30;99.90;;;;;;5080351;28;19923;-72
2023/01/31 02:21:12;;;;;;;;;;;1.20;99.90;;;;;;5060477;28;20008;-71
2023/01/31 02:24:03;;;;;;;;;;;1.20;99.90;;;;;;5048139;28;19924;-73
2023/01/31 02:26:59;;;;;;;;;;;1.20;99.90;;;;;;5059116;28;20302;-74
2023/01/31 02:29:34;;;;;;;;;;;1.10;99.90;;;;;;5049205;28;19928;-72
2023/01/31 02:32:09;;;;;;;;;;;1.10;99.90;;;;;;5070274;28;19990;-72
2023/01/31 02:34:44;;;;;;;;;;;1.00;99.90;;;;;;5046563;28;19928;-72
2023/01/31 02:37:35;;;;;;;;;;;1.00;99.90;;;;;;5052742;28;19955;-72
2023/01/31 02:40:18;;;;;;;;;;;1.00;99.90;;;;;;5047893;28;19930;-72
2023/01/31 02:42:57;;;;;;;;;;;1.00;99.90;;;;;;5070828;28;19969;-72
2023/01/31 02:45:41;;;;;;;;;;;1.00;99.90;;;;;;5054442;28;19928;-71
2023/01/31 02:48:13;;;;;;;;;;;1.00;99.90;;;;;;5090525;28;19924;-72
2023/01/31 02:51:05;;;;;;;;;;;1.00;99.90;;;;;;5057679;28;20007;-71
2023/01/31 02:53:46;;;;;;;;;;;1.00;99.90;;;;;;5061335;28;19999;-72
2023/01/31 02:56:25;;;;;;;;;;;0.90;99.90;;;;;;5058753;28;19924;-72
2023/01/31 02:58:59;;;;;;;;;;;0.90;99.90;;;;;;5073762;28;19912;-73
2023/01/31 03:01:31;;;;;;;;;;;0.90;99.90;;;;;;5093784;28;19924;-71
2023/01/31 03:04:00;;;;;;;;;;;0.90;99.90;;;;;;5071792;28;20279;-72
2023/01/31 03:06:27;;;;;;;;;;;0.90;99.90;;;;;;5065828;28;19927;-72
2023/01/31 03:09:07;;;;;;;;;;;0.90;99.90;;;;;;5082949;28;19929;-73
2023/01/31 03:11:46;;;;;;;;;;;0.90;99.90;;;;;;5067718;28;19925;-72
2023/01/31 03:14:23;;;;;;;;;;;0.80;99.90;;;;;;5063987;28;19959;-73
2023/01/31 03:19:58;;;;;;;;;;;0.80;99.90;;;;;;5067596;28;19935;-73
2023/01/31 03:22:40;;;;;;;;;;;0.80;99.90;;;;;;5059843;28;19928;-74
2023/01/31 03:25:13;;;;;;;;;;;0.70;99.90;;;;;;5080740;28;19935;-74
2023/01/31 03:27:49;;;;;;;;;;;0.70;99.90;;;;;;5065328;28;19977;-74
2023/01/31 03:30:40;;;;;;;;;;;0.70;99.90;;;;;;5065714;28;19982;-73
2023/01/31 03:33:15;;;;;;;;;;;0.60;99.90;;;;;;5078224;28;19924;-74
2023/01/31 03:35:51;;;;;;;;;;;0.60;99.90;;;;;;5060909;28;19928;-73
2023/01/31 03:38:30;;;;;;;;;;;0.60;99.90;;;;;;5070820;28;19923;-74
2023/01/31 03:41:07;;;;;;;;;;;0.60;99.90;;;;;;5058814;28;20711;-74
2023/01/31 03:43:51;;;;;;;;;;;0.60;99.90;;;;;;5068395;28;19950;-72
2023/01/31 03:46:29;;;;;;;;;;;0.50;99.90;;;;;;5071229;28;19947;-73
2023/01/31 03:49:07;;;;;;;;;;;0.50;99.90;;;;;;5073444;28;19924;-74
2023/01/31 03:51:51;;;;;;;;;;;0.50;99.90;;;;;;5073588;28;19924;-74
2023/01/31 03:54:26;;;;;;;;;;;0.50;99.90;;;;;;5051912;28;19932;-74
2023/01/31 03:57:05;;;;;;;;;;;0.50;99.90;;;;;;5069792;28;19928;-74
2023/01/31 03:59:38;;;;;;;;;;;0.50;99.90;;;;;;5066903;28;19928;-74
2023/01/31 04:02:11;;;;;;;;;;;0.50;99.90;;;;;;5070904;28;19928;-74
2023/01/31 04:04:47;;;;;;;;;;;0.50;99.90;;;;;;5069144;28;20015;-74
2023/01/31 04:07:19;;;;;;;;;;;0.50;99.90;;;;;;5074948;28;20024;-74
2023/01/31 04:09:51;;;;;;;;;;;0.60;99.90;;;;;;5076060;28;19924;-74
2023/01/31 04:12:23;;;;;;;;;;;0.70;99.90;;;;;;5082762;28;19924;-74
2023/01/31 04:14:55;;;;;;;;;;;0.70;99.90;;;;;;5081632;28;19931;-74
2023/01/31 04:17:26;;;;;;;;;;;0.60;99.90;;;;;;5084053;28;20340;-74
2023/01/31 04:19:58;;;;;;;;;;;0.60;99.90;;;;;;5069637;28;19931;-73
2023/01/31 04:22:30;;;;;;;;;;;0.70;99.90;;;;;;5057766;28;19928;-73
2023/01/31 04:25:02;;;;;;;;;;;0.70;99.90;;;;;;5080068;28;20022;-74
2023/01/31 04:27:34;;;;;;;;;;;0.70;99.90;;;;;;5077420;28;20416;-72
2023/01/31 04:30:06;;;;;;;;;;;0.70;99.90;;;;;;5083038;28;19948;-74
2023/01/31 04:32:38;;;;;;;;;;;0.70;99.90;;;;;;5086642;28;19936;-74
2023/01/31 04:35:10;;;;;;;;;;;0.70;99.90;;;;;;5086487;28;20367;-74
2023/01/31 04:37:42;;;;;;;;;;;0.70;99.90;;;;;;5089800;28;19924;-74
2023/01/31 04:40:14;;;;;;;;;;;0.70;99.90;;;;;;5086666;28;19928;-74
2023/01/31 04:42:46;;;;;;;;;;;0.70;99.90;;;;;;5072923;28;20437;-72
2023/01/31 04:45:17;;;;;;;;;;;0.60;99.90;;;;;;5076054;28;19924;-73
2023/01/31 04:47:49;;;;;;;;;;;0.70;99.90;;;;;;5090793;28;19924;-74
2023/01/31 04:50:21;;;;;;;;;;;0.70;99.90;;;;;;5072490;28;19970;-73
2023/01/31 04:52:53;;;;;;;;;;;0.60;99.90;;;;;;5080818;28;19931;-74
2023/01/31 04:55:26;;;;;;;;;;;0.70;99.90;;;;;;5084840;28;19934;-74
2023/01/31 04:57:58;;;;;;;;;;;0.70;99.90;;;;;;5086406;28;20007;-74
2023/01/31 05:00:30;;;;;;;;;;;0.70;99.90;;;;;;5089465;28;20048;-74
2023/01/31 05:03:01;;;;;;;;;;;0.60;99.90;;;;;;5084718;28;19950;-74
2023/01/31 05:05:33;;;;;;;;;;;0.70;99.90;;;;;;5070619;28;20310;-74
2023/01/31 05:08:05;;;;;;;;;;;0.70;99.90;;;;;;5084597;28;19931;-73
2023/01/31 05:10:37;;;;;;;;;;;0.70;99.90;;;;;;5078382;28;19924;-73
2023/01/31 05:13:09;;;;;;;;;;;0.70;99.90;;;;;;5085471;28;19956;-74
2023/01/31 05:15:41;;;;;;;;;;;0.70;99.90;;;;;;5083319;28;20341;-73
2023/01/31 05:18:13;;;;;;;;;;;0.70;99.90;;;;;;5092839;28;19924;-74
2023/01/31 05:20:48;;;;;;;;;;;0.70;99.90;;;;;;5081843;28;19969;-74
2023/01/31 05:23:20;;;;;;;;;;;0.70;99.90;;;;;;5064954;28;19935;-73
2023/01/31 05:25:53;;;;;;;;;;;0.70;99.90;;;;;;5068713;28;19934;-73
2023/01/31 05:28:24;;;;;;;;;;;0.80;99.90;;;;;;5057959;28;19927;-74
2023/01/31 05:31:02;;;;;;;;;;;0.80;99.90;;;;;;5064357;28;19935;-73
2023/01/31 05:33:33;;;;;;;;;;;0.80;99.90;;;;;;5046583;28;19925;-72
2023/01/31 05:36:02;;;;;;;;;;;0.80;99.90;;;;;;5064981;28;19924;-74
2023/01/31 05:38:30;;;;;;;;;;;0.80;99.90;;;;;;5059040;28;19978;-74
2023/01/31 05:40:59;;;;;;;;;;;0.80;99.90;;;;;;5053370;28;19924;-75
2023/01/31 05:43:29;;;;;;;;;;;0.80;99.90;;;;;;5058061;28;20035;-74
2023/01/31 05:45:57;;;;;;;;;;;0.80;99.90;;;;;;5047800;28;19925;-74
2023/01/31 05:48:27;;;;;;;;;;;0.80;99.90;;;;;;5060875;28;19924;-74
2023/01/31 05:50:56;;;;;;;;;;;0.80;99.90;;;;;;5064314;28;19928;-72
2023/01/31 05:53:24;;;;;;;;;;;0.80;99.90;;;;;;5068687;28;19952;-74
2023/01/31 05:55:53;;;;;;;;;;;0.80;99.90;;;;;;5051179;28;19929;-73
2023/01/31 05:58:23;;;;;;;;;;;0.80;99.90;;;;;;5060339;28;19932;-73
2023/01/31 06:00:55;;;;;;;;;;;0.70;99.90;;;;;;5051060;28;19925;-73
2023/01/31 06:03:24;;;;;;;;;;;0.70;99.90;;;;;;5045166;28;19924;-74
2023/01/31 06:05:53;;;;;;;;;;;0.70;99.90;;;;;;5048142;28;19924;-74
2023/01/31 06:08:22;;;;;;;;;;;0.80;99.90;;;;;;5058640;28;19930;-74
2023/01/31 06:10:52;;;;;;;;;;;0.80;99.90;;;;;;5052419;28;19933;-74
2023/01/31 06:13:28;;;;;;;;;;;0.80;99.90;;;;;;5049991;28;19970;-74
2023/01/31 06:15:57;;;;;;;;;;;0.70;99.90;;;;;;5051066;28;19928;-74
2023/01/31 06:18:29;;;;;;;;;;;0.70;99.90;;;;;;5068550;28;19924;-73
2023/01/31 06:20:59;;;;;;;;;;;0.70;99.90;;;;;;5065341;28;19931;-74
2023/01/31 06:23:33;;;;;;;;;;;0.70;99.90;;;;;;5048578;28;19925;-74
2023/01/31 06:26:06;;;;;;;;;;;0.70;99.90;;;;;;5079737;28;19934;-73
2023/01/31 06:28:36;;;;;;;;;;;0.70;99.90;;;;;;5057984;28;19924;-74
2023/01/31 06:31:09;;;;;;;;;;;0.70;99.90;;;;;;5060568;28;19978;-74
2023/01/31 06:33:58;;;;;;;;;;;0.70;99.90;;;;;;5079006;28;19928;-73
2023/01/31 06:36:32;;;;;;;;;;;0.70;99.90;;;;;;5057179;28;20295;-73
2023/01/31 06:39:04;;;;;;;;;;;0.70;99.90;;;;;;5082091;28;19924;-75
2023/01/31 06:41:38;;;;;;;;;;;0.60;99.90;;;;;;5055834;28;19931;-73
2023/01/31 06:44:13;;;;;;;;;;;0.70;99.90;;;;;;5066532;28;19924;-71
2023/01/31 06:46:43;;;;;;;;;;;0.70;99.90;;;;;;5051493;28;19973;-74
2023/01/31 06:49:12;;;;;;;;;;;0.70;99.90;;;;;;5058805;28;20386;-74
2023/01/31 06:51:41;;;;;;;;;;;0.70;99.90;;;;;;5043417;28;20011;-74
2023/01/31 06:54:11;;;;;;;;;;;0.70;99.90;;;;;;5047853;28;19924;-74
2023/01/31 06:56:42;;;;;;;;;;;0.70;99.90;;;;;;5051048;28;19932;-73
2023/01/31 06:59:15;;;;;;;;;;;0.70;99.90;;;;;;5064938;28;20616;-72
2023/01/31 07:02:24;;;;;;;;;;;0.70;99.90;;;;;;5011425;28;19957;-74
2023/01/31 07:05:31;;;;;;;;;;;0.70;99.90;;;;;;5002597;28;19944;-74
2023/01/31 07:08:16;;;;;;;;;;;0.70;99.90;;;;;;5007000;28;19929;-73
2023/01/31 07:10:53;;;;;;;;;;;0.60;99.90;;;;;;4994576;28;19929;-73
2023/01/31 07:13:34;;;;;;;;;;;0.60;99.90;;;;;;4991095;28;19930;-74
2023/01/31 07:16:08;;;;;;;;;;;0.60;99.90;;;;;;5009342;28;19929;-73
2023/01/31 07:18:39;;;;;;;;;;;0.60;99.90;;;;;;5006166;28;19932;-74
2023/01/31 07:21:11;;;;;;;;;;;0.60;99.90;;;;;;5007962;28;19926;-74
2023/01/31 07:23:41;;;;;;;;;;;0.60;99.90;;;;;;5002019;28;19925;-73
2023/01/31 07:26:13;;;;;;;;;;;0.60;99.90;;;;;;5008753;28;20648;-73
2023/01/31 07:28:47;;;;;;;;;;;0.50;99.90;;;;;;5012034;28;19926;-73
2023/01/31 07:31:22;;;;;;;;;;;0.50;99.90;;;;;;5017718;28;20340;-74
2023/01/31 07:34:13;;;;;;;;;;;0.50;99.90;;;;;;4977301;28;19926;-73
2023/01/31 07:36:52;;;;;;;;;;;0.60;99.90;;;;;;4978095;28;19929;-74
2023/01/31 07:39:30;;;;;;;;;;;0.70;99.90;;;;;;5019767;28;20060;-74
2023/01/31 07:42:01;;;;;;;;;;;0.80;99.90;;;;;;5001370;28;19926;-74
2023/01/31 07:44:32;;;;;;;;;;;0.80;99.90;;;;;;5005959;28;19925;-74
2023/01/31 07:47:04;;;;;;;;;;;0.90;99.90;;;;;;5049164;28;19977;-72
2023/01/31 07:49:36;;;;;;;;;;;0.90;99.90;;;;;;5056480;28;19935;-73
2023/01/31 07:52:10;;;;;;;;;;;0.90;99.90;;;;;;5079696;28;20360;-74
2023/01/31 07:54:44;;;;;;;;;;;0.90;99.90;;;;;;5076288;28;20375;-74
2023/01/31 07:57:18;;;;;;;;;;;0.90;99.90;;;;;;5069545;28;19929;-73
2023/01/31 07:59:50;;;;;;;;;;;0.90;99.90;;;;;;5047067;28;19929;-74
2023/01/31 08:05:06;;;;;;;;;;;0.80;99.90;;;;;;5067878;28;19928;-74
2023/01/31 08:07:40;;;;;;;;;;;0.80;99.90;;;;;;5035026;28;19924;-73
2023/01/31 08:10:22;;;;;;;;;;;0.80;99.90;;;;;;5052838;28;19936;-74
2023/01/31 08:12:57;;;;;;;;;;;0.90;99.90;;;;;;5066132;28;20304;-74
2023/01/31 08:15:43;;;;;;;;;;;0.80;99.90;;;;;;5078498;28;19924;-73
2023/01/31 08:18:35;;;;;;;;;;;0.90;99.90;;;;;;5084643;28;20009;-73
2023/01/31 08:21:14;;;;;;;;;;;1.10;99.90;;;;;;5079645;28;19968;-74
2023/01/31 08:23:48;;;;;;;;;;;1.20;99.90;;;;;;5057193;28;20391;-74
2023/01/31 08:26:18;;;;;;;;;;;1.20;99.90;;;;;;5063193;28;19928;-74
2023/01/31 08:28:59;;;;;;;;;;;1.20;99.90;;;;;;5075457;28;19931;-74
2023/01/31 08:31:29;;;;;;;;;;;1.20;99.90;;;;;;5071944;28;19930;-74
2023/01/31 08:33:59;;;;;;;;;;;1.20;99.90;;;;;;5059383;28;20409;-74
2023/01/31 08:36:30;;;;;;;;;;;1.10;99.90;;;;;;5060097;28;19912;-73
2023/01/31 08:39:01;;;;;;;;;;;1.10;99.90;;;;;;5079496;28;19925;-72
2023/01/31 08:41:32;;;;;;;;;;;1.10;99.90;;;;;;5040704;28;19944;-74
2023/01/31 08:44:03;;;;;;;;;;;1.20;99.90;;;;;;5067830;28;20439;-71
2023/01/31 08:46:32;;;;;;;;;;;1.20;99.90;;;;;;5058700;28;19924;-74
2023/01/31 08:49:04;;;;;;;;;;;1.30;99.90;;;;;;5072101;28;20364;-74
2023/01/31 08:51:34;;;;;;;;;;;1.40;99.90;;;;;;5048686;28;20420;-74
2023/01/31 08:54:04;;;;;;;;;;;1.50;99.90;;;;;;5065619;28;20352;-73
2023/01/31 08:56:34;;;;;;;;;;;1.60;99.90;;;;;;5049890;28;19928;-73
2023/01/31 08:59:06;;;;;;;;;;;1.70;99.90;;;;;;5078635;28;19931;-72
2023/01/31 09:01:45;;;;;;;;;;;1.70;99.90;;;;;;5062285;28;20593;-74
2023/01/31 09:04:22;;;;;;;;;;;1.80;99.90;;;;;;5062049;28;19964;-74
2023/01/31 09:07:07;;;;;;;;;;;1.80;99.90;;;;;;5068534;28;19924;-74
2023/01/31 09:09:35;;;;;;;;;;;1.90;99.90;;;;;;5054967;28;19951;-74
2023/01/31 09:12:17;;;;;;;;;;;2.00;99.90;;;;;;5062008;28;20349;-73
2023/01/31 09:14:45;;;;;;;;;;;2.10;99.90;;;;;;5064000;28;19928;-74
2023/01/31 09:17:14;;;;;;;;;;;2.10;99.90;;;;;;5053412;28;19978;-74
2023/01/31 09:19:47;;;;;;;;;;;2.10;99.90;;;;;;5062784;28;19932;-73
2023/01/31 09:22:17;;;;;;;;;;;2.10;99.90;;;;;;5057936;28;20558;-72
2023/01/31 09:24:50;;;;;;;;;;;2.20;99.90;;;;;;5033234;28;20361;-73
2023/01/31 09:27:20;;;;;;;;;;;2.20;99.90;;;;;;5070360;28;19935;-73
2023/01/31 09:29:59;;;;;;;;;;;2.20;99.90;;;;;;5060723;28;19931;-74
2023/01/31 09:32:33;;;;;;;;;;;2.20;99.90;;;;;;5067648;28;19935;-73
2023/01/31 09:35:31;;;;;;;;;;;2.20;99.90;;;;;;5082824;28;20303;-74
2023/01/31 09:51:17;;;;;;;;;;;2.60;99.90;;;;;;5081860;28;19965;-74
2023/01/31 09:54:02;;;;;;;;;;;2.70;99.90;;;;;;5062629;28;19950;-72
2023/01/31 09:57:02;;;;;;;;;;;2.60;99.90;;;;;;5067532;28;19928;-74
2023/01/31 09:59:47;;;;;;;;;;;2.70;99.90;;;;;;5085123;28;19932;-74
2023/01/31 10:02:29;;;;;;;;;;;2.80;99.90;;;;;;5047970;28;19947;-72
2023/01/31 10:05:11;;;;;;;;;;;2.80;99.90;;;;;;5050478;28;19974;-73
2023/01/31 10:08:12;;;;;;;;;;;2.80;99.90;;;;;;5057215;28;19924;-74
2023/01/31 10:10:53;;;;;;;;;;;2.80;99.90;;;;;;4994668;28;19929;-74
2023/01/31 10:13:48;;;;;;;;;;;2.90;99.90;;;;;;5037444;28;20294;-72
2023/01/31 10:16:39;;;;;;;;;;;2.90;99.90;;;;;;5052381;28;19928;-73
2023/01/31 10:19:14;;;;;;;;;;;2.90;99.90;;;;;;5083090;28;19924;-74
2023/01/31 10:22:14;;;;;;;;;;;3.10;99.90;;;;;;5066049;28;19916;-75
2023/01/31 10:25:03;;;;;;;;;;;3.10;99.90;;;;;;5057746;28;19925;-74
2023/01/31 10:27:51;;;;;;;;;;;3.20;99.90;;;;;;5065133;28;19943;-73
2023/01/31 10:33:50;;;;;;;;;;;3.20;99.90;;;;;;5072453;28;19925;-73
2023/01/31 10:36:43;;;;;;;;;;;3.20;99.90;;;;;;5061316;28;20019;-72
2023/01/31 10:45:44;;;;;;;;;;;3.20;99.90;;;;;;5081713;28;19938;-73
2023/01/31 10:48:25;;;;;;;;;;;3.20;99.90;;;;;;5079911;28;19928;-73
2023/01/31 10:51:12;;;;;;;;;;;3.10;99.90;;;;;;5063714;28;19964;-72
2023/01/31 10:54:11;;;;;;;;;;;3.10;99.90;;;;;;5064444;28;19928;-73
2023/01/31 10:56:46;;;;;;;;;;;3.00;99.90;;;;;;5063993;28;19947;-73
2023/01/31 10:59:39;;;;;;;;;;;3.00;99.90;;;;;;5099219;28;19931;-72
2023/01/31 11:02:25;;;;;;;;;;;3.00;99.90;;;;;;5072369;28;19928;-72
2023/01/31 11:05:05;;;;;;;;;;;3.00;99.90;;;;;;5074720;28;19924;-73
2023/01/31 11:07:41;;;;;;;;;;;3.00;99.90;;;;;;5077479;28;20019;-73
2023/01/31 11:10:59;;;;;;;;;;;3.00;99.90;;;;;;5067050;28;20473;-73
2023/01/31 11:13:44;;;;;;;;;;;3.00;99.90;;;;;;5071744;28;20018;-73
2023/01/31 11:16:44;;;;;;;;;;;3.10;99.90;;;;;;5065154;28;19946;-73
2023/01/31 11:19:46;;;;;;;;;;;3.10;99.90;;;;;;5074455;28;20394;-73
2023/01/31 11:22:36;;;;;;;;;;;3.10;99.90;;;;;;5067645;28;19924;-73
2023/01/31 11:25:18;;;;;;;;;;;3.20;99.90;;;;;;5081267;28;19950;-72
2023/01/31 11:27:48;;;;;;;;;;;3.20;99.90;;;;;;5076605;28;19946;-73
2023/01/31 11:30:35;;;;;;;;;;;3.30;99.90;;;;;;5074158;28;19954;-73
2023/01/31 11:33:37;;;;;;;;;;;3.30;99.90;;;;;;5043534;28;19969;-73
2023/01/31 11:36:25;;;;;;;;;;;3.30;99.90;;;;;;5068314;28;19928;-73
2023/01/31 11:38:56;;;;;;;;;;;3.30;99.90;;;;;;5053559;28;19928;-73
2023/01/31 11:41:33;;;;;;;;;;;3.30;99.90;;;;;;5050502;28;19924;-74
2023/01/31 11:44:09;;;;;;;;;;;3.30;99.90;;;;;;5043887;28;19995;-74
2023/01/31 11:46:58;;;;;;;;;;;3.40;99.90;;;;;;5092064;28;20318;-73
2023/01/31 11:49:41;;;;;;;;;;;3.40;99.90;;;;;;5047837;28;19928;-74
2023/01/31 11:52:13;;;;;;;;;;;3.50;99.90;;;;;;5064531;28;19924;-74
2023/01/31 11:54:50;;;;;;;;;;;3.50;99.90;;;;;;5061604;28;19931;-73
2023/01/31 11:57:23;;;;;;;;;;;3.50;99.90;;;;;;5063033;28;20007;-73
2023/01/31 11:59:55;;;;;;;;;;;3.50;99.90;;;;;;5084809;28;19998;-73
2023/01/31 12:02:36;;;;;;;;;;;3.40;99.90;;;;;;5083609;28;19932;-74
2023/01/31 12:05:18;;;;;;;;;;;3.50;99.90;;;;;;5037579;28;20407;-73
2023/01/31 12:07:52;;;;;;;;;;;3.60;99.90;;;;;;5053031;28;20268;-73
2023/01/31 12:10:26;;;;;;;;;;;3.50;99.90;;;;;;5056438;28;19938;-72
2023/01/31 12:13:00;;;;;;;;;;;3.50;99.90;;;;;;5072897;28;19943;-73
2023/01/31 12:15:58;;;;;;;;;;;3.40;99.90;;;;;;5075618;28;19927;-73
2023/01/31 12:19:05;;;;;;;;;;;3.60;99.90;;;;;;5074455;28;20565;-73
2023/01/31 12:21:39;;;;;;;;;;;3.60;99.90;;;;;;5075214;28;20149;-72
2023/01/31 12:24:26;;;;;;;;;;;3.60;99.90;;;;;;5074721;28;19932;-73
2023/01/31 12:26:58;;;;;;;;;;;3.80;99.90;;;;;;5062642;28;20455;-73
2023/01/31 12:29:40;;;;;;;;;;;3.80;99.90;;;;;;5056080;28;19947;-73
2023/01/31 12:32:30;;;;;;;;;;;3.80;99.90;;;;;;5062802;28;20019;-73
2023/01/31 12:35:18;;;;;;;;;;;3.80;99.90;;;;;;5054529;28;20383;-73
2023/01/31 12:38:08;;;;;;;;;;;3.90;99.90;;;;;;5063552;28;19924;-73
2023/01/31 12:40:56;;;;;;;;;;;4.00;99.90;;;;;;5065339;28;20543;-73
2023/01/31 12:43:46;;;;;;;;;;;4.20;99.90;;;;;;5040820;28;19929;-74
2023/01/31 12:46:49;;;;;;;;;;;4.30;99.90;;;;;;5060760;28;20011;-73
2023/01/31 12:49:29;;;;;;;;;;;4.40;99.90;;;;;;5065234;28;19989;-73
2023/01/31 12:52:33;;;;;;;;;;;4.30;99.90;;;;;;5083419;28;19932;-73
2023/01/31 12:55:15;;;;;;;;;;;4.30;99.90;;;;;;5076602;28;19939;-73
2023/01/31 12:58:36;;;;;;;;;;;4.20;99.90;;;;;;5079111;28;19981;-73
2023/01/31 13:01:15;;;;;;;;;;;4.00;99.90;;;;;;5073549;28;19925;-73
2023/01/31 13:04:13;;;;;;;;;;;4.00;99.90;;;;;;5065123;28;20019;-73
2023/01/31 13:06:44;;;;;;;;;;;4.00;99.90;;;;;;5054368;28;19989;-73
2023/01/31 13:09:17;;;;;;;;;;;3.90;99.90;;;;;;5057960;28;20010;-72
2023/01/31 13:11:55;;;;;;;;;;;3.80;99.90;;;;;;5070257;28;19978;-73
2023/01/31 13:15:03;;;;;;;;;;;3.70;99.90;;;;;;5087732;28;19924;-73
2023/01/31 13:17:40;;;;;;;;;;;3.60;99.90;;;;;;5037241;28;19932;-73
2023/01/31 13:20:30;;;;;;;;;;;3.50;99.90;;;;;;5080687;28;19925;-72
2023/01/31 13:23:04;;;;;;;;;;;3.40;99.90;;;;;;5055968;28;19924;-74
2023/01/31 13:25:41;;;;;;;;;;;3.40;99.90;;;;;;5054282;28;19924;-72
2023/01/31 13:28:13;;;;;;;;;;;3.40;99.90;;;;;;5065003;28;19924;-72
2023/01/31 13:30:50;;;;;;;;;;;3.40;99.90;;;;;;5065315;28;19947;-73
2023/01/31 13:33:31;;;;;;;;;;;3.40;99.90;;;;;;5054551;28;20533;-72
2023/01/31 13:36:27;;;;;;;;;;;3.40;99.90;;;;;;5048638;28;19955;-72
2023/01/31 13:38:58;;;;;;;;;;;3.40;99.90;;;;;;5053323;28;20018;-73
2023/01/31 13:41:39;;;;;;;;;;;3.30;99.90;;;;;;5068019;28;19928;-72
2023/01/31 13:44:11;;;;;;;;;;;3.40;99.90;;;;;;5081675;28;20387;-72
2023/01/31 13:47:12;;;;;;;;;;;3.40;99.90;;;;;;5056859;28;20383;-73
2023/01/31 13:49:51;;;;;;;;;;;3.40;99.90;;;;;;5061243;28;20391;-73
2023/01/31 13:52:49;;;;;;;;;;;3.30;99.90;;;;;;5063467;28;19924;-73
2023/01/31 13:55:29;;;;;;;;;;;3.30;99.90;;;;;;5051580;28;20015;-73
2023/01/31 13:58:24;;;;;;;;;;;3.30;99.90;;;;;;5062164;28;19925;-73
2023/01/31 14:01:16;;;;;;;;;;;3.30;99.90;;;;;;5053764;28;19924;-72
2023/01/31 14:04:09;;;;;;;;;;;3.30;99.90;;;;;;5060795;28;20685;-73
2023/01/31 14:06:57;;;;;;;;;;;3.20;99.90;;;;;;5068059;28;20029;-73
2023/01/31 14:10:02;;;;;;;;;;;3.20;99.90;;;;;;5093932;28;20488;-73
2023/01/31 14:12:34;;;;;;;;;;;3.20;99.90;;;;;;5063006;28;19908;-72
2023/01/31 14:15:30;;;;;;;;;;;3.20;99.90;;;;;;5088953;28;19927;-73
2023/01/31 14:18:38;;;;;;;;;;;3.20;99.90;;;;;;5073870;28;20031;-73
2023/01/31 14:21:28;;;;;;;;;;;3.20;99.90;;;;;;5070320;28;19924;-73
2023/01/31 14:24:05;;;;;;;;;;;3.10;99.90;;;;;;5058629;28;20290;-73
2023/01/31 14:26:43;;;;;;;;;;;3.10;99.90;;;;;;5055677;28;19924;-73
2023/01/31 14:29:17;;;;;;;;;;;3.10;99.90;;;;;;5050738;28;19924;-73
2023/01/31 14:31:49;;;;;;;;;;;3.10;99.90;;;;;;5066167;28;19929;-73
2023/01/31 14:34:24;;;;;;;;;;;3.10;99.90;;;;;;5077423;28;19931;-72
2023/01/31 14:36:58;;;;;;;;;;;3.10;99.90;;;;;;5063127;28;19955;-73
2023/01/31 14:40:08;;;;;;;;;;;3.10;99.90;;;;;;5085040;28;20314;-73
2023/01/31 14:43:14;;;;;;;;;;;3.10;99.90;;;;;;5073709;28;19932;-73
2023/01/31 14:46:13;;;;;;;;;;;3.20;99.90;;;;;;5072586;28;20147;-73
2023/01/31 14:49:18;;;;;;;;;;;3.20;99.90;;;;;;5069521;28;19955;-73
2023/01/31 14:52:12;;;;;;;;;;;3.10;99.90;;;;;;5073663;28;19932;-73
2023/01/31 14:55:06;;;;;;;;;;;3.10;99.90;;;;;;5080349;28;19932;-73
2023/01/31 14:57:45;;;;;;;;;;;3.10;99.90;;;;;;5074340;28;19932;-72
2023/01/31 15:00:18;;;;;;;;;;;3.10;99.90;;;;;;5089001;28;19932;-72
2023/01/31 15:03:12;;;;;;;;;;;3.10;99.90;;;;;;5075985;28;20466;-73
2023/01/31 15:05:54;;;;;;;;;;;3.10;99.90;;;;;;5073150;28;19931;-73
2023/01/31 15:08:25;;;;;;;;;;;3.10;99.90;;;;;;5063399;28;19951;-73
2023/01/31 15:11:12;;;;;;;;;;;3.00;99.90;;;;;;5059221;28;20422;-72
2023/01/31 15:13:47;;;;;;;;;;;3.10;99.90;;;;;;5056478;28;19927;-73
2023/01/31 15:16:35;;;;;;;;;;;3.10;99.90;;;;;;5056387;28;19924;-73
2023/01/31 15:19:20;;;;;;;;;;;3.10;99.90;;;;;;5071374;28;19932;-73
2023/01/31 15:21:57;;;;;;;;;;;3.10;99.90;;;;;;5056546;28;20385;-73
2023/01/31 15:24:38;;;;;;;;;;;3.10;99.90;;;;;;5061096;28;20394;-73
2023/01/31 15:27:13;;;;;;;;;;;3.10;99.90;;;;;;5051472;28;19947;-73
2023/01/31 15:29:46;;;;;;;;;;;3.10;99.90;;;;;;5029262;28;19928;-73
2023/01/31 15:32:21;;;;;;;;;;;3.10;99.90;;;;;;5044457;28;19924;-73
2023/01/31 15:35:00;;;;;;;;;;;3.20;99.90;;;;;;5049940;28;19928;-73
2023/01/31 15:37:34;;;;;;;;;;;3.10;99.90;;;;;;5054572;28;19924;-73
2023/01/31 15:40:12;;;;;;;;;;;3.10;99.90;;;;;;5058741;28;19924;-73
2023/01/31 15:42:43;;;;;;;;;;;3.10;99.90;;;;;;5062284;28;19928;-73
2023/01/31 15:45:30;;;;;;;;;;;3.10;99.90;;;;;;5055485;28;20305;-73
2023/01/31 15:48:01;;;;;;;;;;;3.10;99.90;;;;;;5081537;28;19939;-73
2023/01/31 15:50:35;;;;;;;;;;;3.10;99.90;;;;;;5071427;28;19930;-73
2023/01/31 15:53:12;;;;;;;;;;;3.10;99.90;;;;;;5069493;28;20038;-73
2023/01/31 15:55:45;;;;;;;;;;;3.10;99.90;;;;;;5063348;28;19928;-73
2023/01/31 15:58:34;;;;;;;;;;;3.10;99.90;;;;;;5078424;28;19939;-73
2023/01/31 16:01:14;;;;;;;;;;;3.10;99.90;;;;;;5056510;28;19928;-74
2023/01/31 16:03:50;;;;;;;;;;;3.10;99.90;;;;;;5076731;28;19928;-72